Time;durP1;ratioP1;P1;durP2;ratioP2;P2;SDS_P1;SDS_P2;PMS_P1;PMS_P2;Temp;Humidity;BMP_temperature;BMP_pressure;BME280_temperature;BME280_humidity;BME280_pressure;Samples;Min_cycle;Max_cycle;Signal;HPM_P1;HPM_P2
2022/07/09 00:01:23;;;;;;;6.70;3.65;;;;;;;17.61;77.91;93869.03;5004195;28;20308;-77
2022/07/09 00:03:49;;;;;;;5.22;3.45;;;;;;;17.68;77.67;93876.44;5004385;28;20023;-77
2022/07/09 00:06:14;;;;;;;10.02;3.20;;;;;;;17.70;77.21;93868.00;5004189;28;20057;-77
2022/07/09 00:08:40;;;;;;;5.13;3.08;;;;;;;17.73;76.71;93865.38;5003979;28;20264;-77
2022/07/09 00:11:05;;;;;;;4.30;3.15;;;;;;;17.63;76.94;93874.06;5004102;28;20364;-77
2022/07/09 00:13:30;;;;;;;9.05;3.50;;;;;;;17.59;77.68;93878.59;5004072;28;20027;-77
2022/07/09 00:15:56;;;;;;;7.07;4.35;;;;;;;17.58;77.77;93877.03;5004023;28;20217;-77
2022/07/09 00:18:21;;;;;;;5.80;3.67;;;;;;;17.51;78.06;93871.53;5003707;28;20033;-76
2022/07/09 00:20:47;;;;;;;7.03;4.15;;;;;;;17.53;78.61;93871.94;5003997;28;20029;-76
2022/07/09 00:23:12;;;;;;;4.90;3.55;;;;;;;17.54;78.61;93876.19;5003989;28;20081;-76
2022/07/09 00:25:38;;;;;;;5.60;4.10;;;;;;;17.53;78.24;93863.88;5003967;28;20026;-76
2022/07/09 00:28:03;;;;;;;7.40;5.68;;;;;;;17.57;79.13;93867.41;5003965;28;20018;-76
2022/07/09 00:30:35;;;;;;;10.10;6.10;;;;;;;17.47;79.65;93859.91;5003505;28;20022;-78
2022/07/09 00:33:00;;;;;;;10.07;6.93;;;;;;;17.28;81.12;93869.56;5003730;28;20025;-77
2022/07/09 00:35:26;;;;;;;10.27;6.30;;;;;;;17.15;81.71;93868.91;5003753;28;20026;-77
2022/07/09 00:37:51;;;;;;;8.07;5.78;;;;;;;17.09;82.32;93867.63;5003959;28;20022;-77
2022/07/09 00:40:17;;;;;;;6.47;4.90;;;;;;;16.99;82.63;93866.25;5003384;28;20332;-77
2022/07/09 00:42:42;;;;;;;10.70;5.30;;;;;;;16.92;83.00;93871.50;5003748;28;20089;-77
2022/07/09 00:45:08;;;;;;;6.10;4.72;;;;;;;16.86;83.64;93866.75;5003017;28;20347;-77
2022/07/09 00:47:34;;;;;;;7.18;4.82;;;;;;;16.83;83.75;93854.75;5003541;28;20312;-77
2022/07/09 00:50:00;;;;;;;5.82;4.40;;;;;;;16.79;82.65;93861.97;5003587;28;20022;-77
2022/07/09 00:52:26;;;;;;;6.18;4.57;;;;;;;16.76;83.25;93854.59;5003430;28;20026;-77
2022/07/09 00:54:51;;;;;;;11.73;4.28;;;;;;;16.62;83.24;93861.22;5003632;28;20073;-77
2022/07/09 00:57:19;;;;;;;4.90;3.97;;;;;;;16.55;83.47;93847.63;5003553;28;20212;-77
2022/07/09 00:59:45;;;;;;;6.43;3.63;;;;;;;16.39;83.75;93847.66;5003240;28;20201;-77
2022/07/09 01:02:10;;;;;;;6.57;4.28;;;;;;;16.35;84.21;93854.09;5003243;28;20053;-77
2022/07/09 01:04:37;;;;;;;7.63;4.05;;;;;;;16.32;84.51;93846.69;5003428;28;20033;-77
2022/07/09 01:07:03;;;;;;;4.63;3.38;;;;;;;16.24;84.68;93841.16;5003363;28;20077;-77
2022/07/09 01:09:29;;;;;;;6.00;3.78;;;;;;;16.25;85.33;93833.88;5003170;28;20041;-77
2022/07/09 01:11:56;;;;;;;7.38;4.30;;;;;;;16.19;85.23;93838.72;5003234;28;20089;-77
2022/07/09 01:14:22;;;;;;;7.93;3.88;;;;;;;16.19;85.84;93838.72;5003413;28;20030;-77
2022/07/09 01:16:56;;;;;;;10.23;4.13;;;;;;;16.18;86.27;93829.13;5003176;28;20054;-77
2022/07/09 01:19:21;;;;;;;6.20;3.47;;;;;;;16.01;85.67;93826.78;5003062;28;20065;-76
2022/07/09 01:21:47;;;;;;;8.18;3.83;;;;;;;15.80;87.19;93825.13;5003097;28;20018;-76
2022/07/09 01:24:12;;;;;;;5.10;3.67;;;;;;;15.84;87.05;93828.69;5003266;28;20026;-76
2022/07/09 01:26:38;;;;;;;5.43;3.97;;;;;;;15.87;87.96;93835.28;5003083;28;20259;-77
2022/07/09 01:29:03;;;;;;;4.93;3.95;;;;;;;15.84;87.47;93828.69;5003054;28;20038;-77
2022/07/09 01:31:28;;;;;;;5.07;3.83;;;;;;;15.82;88.42;93822.88;5002977;28;20377;-76
2022/07/09 01:33:54;;;;;;;6.22;3.92;;;;;;;15.81;88.28;93823.22;5003266;28;20093;-77
2022/07/09 01:36:19;;;;;;;5.63;3.80;;;;;;;15.82;88.55;93825.56;5003288;28;20077;-77
2022/07/09 01:38:45;;;;;;;5.45;4.20;;;;;;;15.83;87.93;93812.91;5002971;28;20049;-77
2022/07/09 01:41:10;;;;;;;10.00;3.63;;;;;;;15.82;88.30;93820.19;5001614;28;20048;-77
2022/07/09 01:43:36;;;;;;;9.40;4.68;;;;;;;15.88;88.44;93828.00;5002844;28;20022;-77
2022/07/09 01:46:01;;;;;;;4.97;4.13;;;;;;;15.93;88.30;93822.38;5003082;28;20085;-77
2022/07/09 01:48:29;;;;;;;5.93;3.83;;;;;;;15.94;88.02;93821.25;5002963;28;20018;-77
2022/07/09 01:50:54;;;;;;;4.88;3.70;;;;;;;15.98;88.41;93822.88;5002820;28;20022;-78
2022/07/09 01:53:20;;;;;;;4.63;3.58;;;;;;;15.99;87.91;93818.28;5003186;28;20018;-78
2022/07/09 01:55:46;;;;;;;6.00;3.97;;;;;;;16.05;86.87;93816.91;5004484;28;20018;-78
2022/07/09 01:58:11;;;;;;;6.68;4.15;;;;;;;16.05;87.00;93819.59;5006496;28;20046;-77
2022/07/09 02:00:37;;;;;;;5.13;3.63;;;;;;;16.03;86.90;93817.22;5006306;28;20104;-76
2022/07/09 02:03:02;;;;;;;4.40;3.67;;;;;;;16.01;86.95;93814.13;5006563;28;20217;-77
2022/07/09 02:05:29;;;;;;;7.80;4.28;;;;;;;16.03;86.65;93814.53;5006581;28;20383;-76
2022/07/09 02:07:54;;;;;;;5.10;3.40;;;;;;;16.00;86.51;93819.84;5006452;28;20064;-77
2022/07/09 02:10:20;;;;;;;8.68;3.58;;;;;;;16.01;86.69;93822.19;5006351;28;20320;-77
2022/07/09 02:12:46;;;;;;;5.65;3.75;;;;;;;15.99;86.60;93829.03;5006192;28;20027;-77
2022/07/09 02:15:12;;;;;;;8.75;3.78;;;;;;;16.01;86.74;93832.16;5006423;28;20281;-77
2022/07/09 02:17:38;;;;;;;5.18;3.70;;;;;;;15.99;86.86;93831.72;5006258;28;20093;-76
2022/07/09 02:20:04;;;;;;;11.20;3.17;;;;;;;15.94;86.73;93830.09;5005715;28;20260;-77
2022/07/09 02:22:31;;;;;;;8.93;3.63;;;;;;;15.99;86.36;93831.72;5005826;28;20324;-77
2022/07/09 02:24:56;;;;;;;7.35;3.25;;;;;;;15.94;86.38;93829.31;5006252;28;20076;-77
2022/07/09 02:27:22;;;;;;;4.40;2.88;;;;;;;15.97;86.48;93836.66;5006118;28;20025;-76
2022/07/09 02:29:47;;;;;;;4.57;2.85;;;;;;;16.02;86.33;93833.72;5005867;28;20022;-77
2022/07/09 02:32:13;;;;;;;6.57;2.95;;;;;;;16.03;86.15;93837.97;5005934;28;20077;-77
2022/07/09 02:34:38;;;;;;;4.57;2.70;;;;;;;16.05;86.41;93838.41;5006101;28;20034;-77
2022/07/09 02:37:05;;;;;;;4.13;3.10;;;;;;;16.07;85.71;93838.84;5005802;28;20252;-77
2022/07/09 02:39:30;;;;;;;3.85;3.10;;;;;;;16.09;85.88;93844.63;5005739;28;20026;-77
2022/07/09 02:41:56;;;;;;;3.85;2.38;;;;;;;16.13;85.83;93834.75;5005613;28;20066;-77
2022/07/09 02:44:22;;;;;;;3.92;3.00;;;;;;;16.14;85.79;93839.00;5005885;28;20382;-77
2022/07/09 02:46:47;;;;;;;7.88;2.80;;;;;;;16.16;85.69;93838.66;5005653;28;20030;-77
2022/07/09 02:49:13;;;;;;;3.38;2.53;;;;;;;16.17;85.16;93843.69;5005677;28;20288;-77
2022/07/09 02:51:38;;;;;;;4.40;2.50;;;;;;;16.19;83.55;93840.66;5005582;28;20018;-77
2022/07/09 02:54:04;;;;;;;4.63;2.75;;;;;;;16.18;84.31;93847.94;5005564;28;20044;-76
2022/07/09 02:56:30;;;;;;;5.28;2.53;;;;;;;16.18;84.35;93852.53;5005489;28;20025;-76
2022/07/09 02:58:55;;;;;;;3.58;2.70;;;;;;;16.21;84.68;93855.31;5005712;28;20271;-77
2022/07/09 03:01:20;;;;;;;4.78;2.97;;;;;;;16.25;84.60;93852.69;5005351;28;20044;-77
2022/07/09 03:03:46;;;;;;;3.70;2.90;;;;;;;16.28;85.01;93853.91;5005309;28;20076;-76
2022/07/09 03:06:12;;;;;;;10.68;2.83;;;;;;;16.33;84.85;93859.03;5005396;28;20053;-77
2022/07/09 03:08:38;;;;;;;9.00;3.05;;;;;;;16.35;84.82;93859.47;5004445;28;20053;-75
2022/07/09 03:11:06;;;;;;;5.18;2.53;;;;;;;16.37;83.76;93857.97;5005164;28;20300;-77
2022/07/09 03:13:32;;;;;;;5.70;2.85;;;;;;;16.40;83.50;93856.50;5005051;28;20220;-76
2022/07/09 03:15:58;;;;;;;7.57;3.05;;;;;;;16.40;83.57;93859.19;5005104;28;20022;-80
2022/07/09 03:18:24;;;;;;;3.83;2.05;;;;;;;16.33;81.34;93848.28;5005186;28;20272;-77
2022/07/09 03:20:50;;;;;;;4.82;2.58;;;;;;;16.35;82.05;93854.09;5004862;28;20022;-77
2022/07/09 03:23:16;;;;;;;7.32;3.17;;;;;;;16.37;83.32;93849.13;5004922;28;20372;-77
2022/07/09 03:25:42;;;;;;;3.42;2.78;;;;;;;16.35;83.41;93851.41;5004954;28;20018;-77
2022/07/09 03:28:08;;;;;;;3.65;2.65;;;;;;;16.38;83.14;93862.22;5003830;28;20083;-77
2022/07/09 03:30:34;;;;;;;3.70;2.45;;;;;;;16.35;82.80;93852.16;5004687;28;20049;-77
2022/07/09 03:32:59;;;;;;;3.65;2.50;;;;;;;16.41;82.49;93853.47;5004744;28;20028;-77
2022/07/09 03:35:25;;;;;;;18.02;2.95;;;;;;;16.43;81.52;93847.75;5004996;28;20057;-77
2022/07/09 03:37:50;;;;;;;4.10;3.05;;;;;;;16.43;81.70;93851.19;5004633;28;20025;-78
2022/07/09 03:40:16;;;;;;;3.90;2.70;;;;;;;16.48;81.95;93846.69;5004370;28;20054;-77
2022/07/09 03:42:41;;;;;;;3.63;2.22;;;;;;;16.47;81.63;93845.91;5004587;28;20026;-77
2022/07/09 03:45:07;;;;;;;6.72;2.80;;;;;;;16.45;81.95;93845.47;5004586;28;20031;-78
2022/07/09 03:47:32;;;;;;;3.28;2.58;;;;;;;16.45;82.72;93848.16;5004487;28;20029;-76
2022/07/09 03:49:58;;;;;;;6.85;2.70;;;;;;;16.42;82.25;93846.16;5004702;28;20015;-77
2022/07/09 03:52:23;;;;;;;7.45;3.00;;;;;;;16.44;82.32;93843.91;5004512;28;20034;-77
2022/07/09 03:54:49;;;;;;;7.07;3.38;;;;;;;16.37;82.89;93854.50;5004186;28;20045;-76
2022/07/09 03:57:14;;;;;;;4.65;3.25;;;;;;;16.42;83.28;93856.91;5004359;28;20101;-77
2022/07/09 03:59:40;;;;;;;4.22;2.88;;;;;;;16.48;83.44;93852.06;5004288;28;20030;-78
2022/07/09 04:02:05;;;;;;;5.40;3.30;;;;;;;16.54;84.19;93847.97;5004201;28;20109;-77
2022/07/09 04:04:31;;;;;;;4.10;2.83;;;;;;;16.55;84.08;93853.00;5004039;28;20162;-78
2022/07/09 04:06:57;;;;;;;3.47;2.60;;;;;;;16.52;82.96;93851.00;5004355;28;20269;-78
2022/07/09 04:09:22;;;;;;;6.80;3.03;;;;;;;16.54;81.78;93846.06;5004178;28;20081;-78
2022/07/09 04:11:48;;;;;;;4.78;3.10;;;;;;;16.52;82.66;93853.69;5003965;28;20198;-78
2022/07/09 04:14:16;;;;;;;7.20;3.35;;;;;;;16.47;82.81;93859.34;5004129;28;20060;-77
2022/07/09 04:16:41;;;;;;;4.10;3.00;;;;;;;16.48;83.02;93860.91;5003991;28;20221;-77
2022/07/09 04:19:07;;;;;;;5.82;3.28;;;;;;;16.52;84.03;93867.16;5003719;28;20030;-77
2022/07/09 04:21:33;;;;;;;9.52;3.72;;;;;;;16.56;84.57;93862.63;5003683;28;20064;-76
2022/07/09 04:23:58;;;;;;;5.47;3.20;;;;;;;16.60;84.01;93870.78;5004067;28;20101;-77
2022/07/09 04:26:24;;;;;;;3.78;2.55;;;;;;;16.59;83.17;93867.31;5003832;28;20026;-77
2022/07/09 04:28:49;;;;;;;5.82;3.42;;;;;;;16.54;83.26;93870.25;5003798;28;20060;-76
2022/07/09 04:31:15;;;;;;;6.18;3.60;;;;;;;16.59;83.85;93875.38;5003620;28;20098;-76
2022/07/09 04:33:42;;;;;;;4.10;3.15;;;;;;;16.65;83.71;93882.06;5003491;28;20022;-77
2022/07/09 04:36:08;;;;;;;4.47;2.80;;;;;;;16.72;83.57;93869.91;5003734;28;20093;-77
2022/07/09 04:38:33;;;;;;;6.13;3.45;;;;;;;16.74;82.56;93864.94;5003380;28;20362;-76
2022/07/09 04:40:58;;;;;;;4.07;2.83;;;;;;;16.79;83.11;93875.41;5003839;28;20118;-77
2022/07/09 04:43:24;;;;;;;5.35;2.60;;;;;;;16.82;82.37;93870.16;5004015;28;20397;-77
2022/07/09 04:45:50;;;;;;;5.43;3.47;;;;;;;16.84;82.29;93861.72;5003530;28;20033;-77
2022/07/09 04:48:15;;;;;;;5.40;2.72;;;;;;;16.87;82.96;93855.63;5003626;28;20088;-77
2022/07/09 04:50:40;;;;;;;5.03;3.25;;;;;;;16.86;82.62;93859.47;5003793;28;20015;-76
2022/07/09 04:53:06;;;;;;;4.93;3.45;;;;;;;16.87;82.95;93863.69;5003462;28;20031;-77
2022/07/09 04:55:31;;;;;;;3.47;2.72;;;;;;;16.88;82.14;93861.81;5003030;28;20034;-77
2022/07/09 04:57:57;;;;;;;7.72;2.95;;;;;;;16.94;82.19;93863.88;5003368;28;20321;-77
2022/07/09 05:00:23;;;;;;;3.50;2.60;;;;;;;16.98;81.09;93862.03;5003321;28;20038;-77
2022/07/09 05:02:48;;;;;;;3.78;2.53;;;;;;;16.95;80.76;93860.03;5003115;28;20026;-77
2022/07/09 05:05:13;;;;;;;4.00;2.75;;;;;;;16.96;80.57;93866.97;5003302;28;20227;-77
2022/07/09 05:07:41;;;;;;;4.45;2.80;;;;;;;16.95;80.62;93859.25;5003365;28;20045;-77
2022/07/09 05:10:08;;;;;;;5.05;2.60;;;;;;;16.83;81.25;93866.34;5003113;28;20030;-76
2022/07/09 05:12:33;;;;;;;5.97;3.22;;;;;;;16.74;81.27;93868.41;5003357;28;20211;-77
2022/07/09 05:14:59;;;;;;;6.20;2.60;;;;;;;16.63;81.60;93876.25;5003536;28;20053;-77
2022/07/09 05:17:24;;;;;;;4.60;3.45;;;;;;;16.56;81.97;93872.63;5003040;28;20087;-77
2022/07/09 05:19:50;;;;;;;6.18;3.10;;;;;;;16.55;82.81;93879.13;5003113;28;20038;-78
2022/07/09 05:22:16;;;;;;;5.25;3.38;;;;;;;16.44;81.99;93866.22;5003355;28;20033;-78
2022/07/09 05:24:42;;;;;;;3.65;2.40;;;;;;;16.41;82.67;93874.22;5003123;28;20022;-78
2022/07/09 05:27:10;;;;;;;5.93;3.05;;;;;;;16.38;83.83;93883.72;5002992;28;20065;-78
2022/07/09 05:29:36;;;;;;;6.22;3.47;;;;;;;16.41;84.61;93887.66;5003180;28;20340;-78
2022/07/09 05:32:05;;;;;;;4.03;2.60;;;;;;;16.34;84.12;93887.47;5006775;28;20026;-77
2022/07/09 05:34:30;;;;;;;6.15;2.95;;;;;;;16.32;83.55;93895.13;5007154;28;20224;-76
2022/07/09 05:36:56;;;;;;;8.65;2.40;;;;;;;16.31;83.58;93893.56;5007146;28;20022;-76
2022/07/09 05:39:22;;;;;;;4.07;2.40;;;;;;;16.14;83.20;93906.22;5006677;28;20027;-76
2022/07/09 05:41:48;;;;;;;3.10;2.30;;;;;;;16.13;82.76;93901.19;5006427;28;20046;-76
2022/07/09 05:44:14;;;;;;;3.53;2.63;;;;;;;16.18;84.06;93898.22;5006643;28;20100;-75
2022/07/09 05:46:40;;;;;;;3.80;2.50;;;;;;;16.10;83.10;93896.50;5006708;28;20033;-75
2022/07/09 05:49:05;;;;;;;3.50;2.55;;;;;;;16.13;83.70;93907.34;5006380;28;20018;-75
2022/07/09 05:51:30;;;;;;;3.15;2.25;;;;;;;16.19;84.15;93905.97;5006727;28;20053;-76
2022/07/09 05:53:56;;;;;;;3.40;2.20;;;;;;;16.25;85.00;93912.63;5006400;28;20022;-76
2022/07/09 05:56:21;;;;;;;3.15;2.28;;;;;;;16.24;83.51;93905.72;5006594;28;20026;-76
2022/07/09 05:58:47;;;;;;;4.93;2.22;;;;;;;16.28;83.61;93910.38;5006303;28;20336;-77
2022/07/09 06:01:13;;;;;;;3.13;1.83;;;;;;;16.29;83.83;93906.56;5006375;28;20023;-76
2022/07/09 06:03:39;;;;;;;3.10;2.17;;;;;;;16.32;83.47;93901.25;5006230;28;20029;-76
2022/07/09 06:06:05;;;;;;;6.50;2.13;;;;;;;16.35;83.19;93905.19;5006145;28;20084;-77
2022/07/09 06:08:31;;;;;;;3.10;2.38;;;;;;;16.40;83.73;93900.31;5006675;28;20320;-77
2022/07/09 06:10:57;;;;;;;3.33;1.95;;;;;;;16.44;82.89;93909.25;5006369;28;20339;-77
2022/07/09 06:13:22;;;;;;;4.25;2.00;;;;;;;16.47;82.75;93913.16;5006179;28;20022;-77
2022/07/09 06:15:48;;;;;;;4.45;2.08;;;;;;;16.47;82.93;93913.16;5006270;28;20057;-77
2022/07/09 06:18:13;;;;;;;4.18;1.90;;;;;;;16.50;83.11;93908.97;5006210;28;20041;-78
2022/07/09 06:20:39;;;;;;;3.60;2.17;;;;;;;16.46;81.99;93906.19;5006114;28;20037;-78
2022/07/09 06:23:04;;;;;;;4.80;2.38;;;;;;;16.49;82.76;93905.53;5006042;28;20018;-77
2022/07/09 06:25:30;;;;;;;4.00;2.50;;;;;;;16.51;83.11;93908.66;5006371;28;20018;-78
2022/07/09 06:27:55;;;;;;;4.20;2.05;;;;;;;16.51;82.19;93911.34;5006202;28;20339;-78
2022/07/09 06:30:21;;;;;;;3.33;2.10;;;;;;;16.51;82.69;93918.63;5005941;28;20175;-78
2022/07/09 06:32:46;;;;;;;4.25;2.03;;;;;;;16.53;83.45;93911.75;5006081;28;20030;-78
2022/07/09 06:35:12;;;;;;;3.30;2.50;;;;;;;16.54;82.40;93918.69;5005954;28;20022;-77
2022/07/09 06:37:37;;;;;;;7.47;2.38;;;;;;;16.54;82.91;93918.69;5005775;28;20022;-78
2022/07/09 06:40:04;;;;;;;4.53;2.03;;;;;;;16.55;82.14;93917.56;5005520;28;20046;-78
2022/07/09 06:42:30;;;;;;;3.90;2.22;;;;;;;16.62;82.04;93919.66;5004807;28;20033;-78
2022/07/09 06:44:55;;;;;;;3.00;2.20;;;;;;;16.66;82.15;93920.50;5005855;28;20037;-78
2022/07/09 06:47:21;;;;;;;3.90;2.35;;;;;;;16.69;82.37;93925.22;5005539;28;20026;-78
2022/07/09 06:49:46;;;;;;;7.30;2.60;;;;;;;16.72;83.36;93918.34;5005701;28;20011;-76
2022/07/09 06:52:12;;;;;;;3.35;2.08;;;;;;;16.76;82.97;93924.56;5005536;28;20030;-77
2022/07/09 06:54:37;;;;;;;4.65;2.85;;;;;;;16.78;83.33;93925.00;5005414;28;20022;-77
2022/07/09 06:57:03;;;;;;;8.77;2.75;;;;;;;16.92;83.41;93922.66;5005517;28;20018;-75
2022/07/09 06:59:29;;;;;;;11.40;3.28;;;;;;;16.99;80.94;93930.09;5005699;28;20029;-76
2022/07/09 07:01:54;;;;;;;4.68;3.10;;;;;;;16.99;81.21;93922.81;5005421;28;20026;-76
2022/07/09 07:04:20;;;;;;;3.38;2.15;;;;;;;17.09;81.74;93924.16;5005182;28;20145;-75
2022/07/09 07:06:49;;;;;;;3.05;2.15;;;;;;;17.13;81.14;93921.56;5005103;28;20023;-76
2022/07/09 07:09:18;;;;;;;3.33;2.38;;;;;;;17.22;81.13;93924.84;5004946;28;20072;-75
2022/07/09 07:11:44;;;;;;;3.03;2.25;;;;;;;17.30;80.40;93926.56;5004910;28;20260;-75
2022/07/09 07:14:10;;;;;;;3.95;2.40;;;;;;;17.40;80.56;93926.00;5005071;28;20037;-76
2022/07/09 07:16:35;;;;;;;4.10;2.53;;;;;;;17.38;79.40;93922.88;5004733;28;20026;-76
2022/07/09 07:19:01;;;;;;;5.65;2.30;;;;;;;17.47;78.41;93929.97;5004822;28;20026;-75
2022/07/09 07:21:26;;;;;;;3.30;2.28;;;;;;;17.53;77.87;93923.91;5003823;28;20312;-76
2022/07/09 07:23:52;;;;;;;3.50;2.00;;;;;;;17.41;77.73;93921.38;5004691;28;20356;-76
2022/07/09 07:26:17;;;;;;;9.73;2.28;;;;;;;17.42;78.44;93922.91;5004697;28;20312;-76
2022/07/09 07:28:43;;;;;;;3.97;2.40;;;;;;;17.38;78.87;93922.06;5004635;28;20018;-76
2022/07/09 07:31:08;;;;;;;5.97;2.92;;;;;;;17.39;79.47;93929.03;5004573;28;20026;-75
2022/07/09 07:33:34;;;;;;;7.05;4.78;;;;;;;17.52;79.66;93926.97;5004457;28;20054;-75
2022/07/09 07:35:59;;;;;;;3.88;2.63;;;;;;;17.59;78.97;93925.19;5004659;28;20022;-76
2022/07/09 07:38:27;;;;;;;5.78;2.90;;;;;;;17.69;78.78;93933.81;5004168;28;20022;-76
2022/07/09 07:40:53;;;;;;;3.30;2.60;;;;;;;17.73;77.37;93922.00;5004262;28;20092;-76
2022/07/09 07:43:19;;;;;;;3.17;2.40;;;;;;;17.78;77.61;93929.78;5004546;28;20022;-77
2022/07/09 07:45:44;;;;;;;3.63;2.63;;;;;;;17.73;76.98;93932.00;5004304;28;20025;-76
2022/07/09 07:48:10;;;;;;;5.85;3.15;;;;;;;17.59;77.22;93921.72;5004227;28;20030;-76
2022/07/09 07:50:38;;;;;;;5.25;2.75;;;;;;;17.55;78.68;93920.88;5004217;28;20042;-76
2022/07/09 07:53:06;;;;;;;4.25;2.72;;;;;;;17.54;78.72;93927.38;5003788;28;20018;-76
2022/07/09 07:55:32;;;;;;;6.50;3.40;;;;;;;17.65;79.38;93926.47;5003868;28;20022;-77
2022/07/09 07:57:58;;;;;;;5.45;3.25;;;;;;;17.68;78.39;93929.59;5004319;28;20366;-77
2022/07/09 08:00:23;;;;;;;7.13;2.80;;;;;;;17.71;77.06;93929.66;5004067;28;20065;-76
2022/07/09 08:02:49;;;;;;;4.05;3.10;;;;;;;17.66;77.49;93932.63;5003903;28;20029;-77
2022/07/09 08:05:14;;;;;;;3.83;2.92;;;;;;;17.66;78.82;93921.84;5004175;28;20045;-76
2022/07/09 08:07:40;;;;;;;3.63;2.92;;;;;;;17.57;77.85;93929.38;5004048;28;20026;-79
2022/07/09 08:10:06;;;;;;;4.20;3.08;;;;;;;17.51;78.36;93920.03;5003925;28;20322;-78
2022/07/09 08:12:31;;;;;;;4.30;3.00;;;;;;;17.54;77.86;93927.38;5004097;28;20057;-78
2022/07/09 08:14:57;;;;;;;3.67;2.97;;;;;;;17.54;77.72;93930.09;5004096;28;20026;-77
2022/07/09 08:17:22;;;;;;;4.72;3.30;;;;;;;17.40;78.54;93923.28;5003994;28;20081;-77
2022/07/09 08:19:48;;;;;;;3.97;3.00;;;;;;;17.30;78.68;93920.34;5003810;28;20030;-77
2022/07/09 08:22:13;;;;;;;7.45;3.00;;;;;;;17.21;80.35;93918.66;5004026;28;20026;-78
2022/07/09 08:24:39;;;;;;;3.65;3.00;;;;;;;17.30;81.17;93928.44;5003855;28;20094;-78
2022/07/09 08:27:04;;;;;;;11.15;3.00;;;;;;;17.35;80.62;93920.09;5003659;28;20378;-77
2022/07/09 08:29:30;;;;;;;5.95;3.78;;;;;;;17.50;82.10;93923.84;5003810;28;20018;-78
2022/07/09 08:31:55;;;;;;;4.72;3.35;;;;;;;17.55;80.26;93918.97;5002604;28;20236;-78
2022/07/09 08:34:21;;;;;;;4.10;3.05;;;;;;;17.59;79.99;93921.72;5002477;28;20018;-78
2022/07/09 08:36:46;;;;;;;4.50;2.95;;;;;;;17.52;79.26;93924.28;5003902;28;20030;-77
2022/07/09 08:39:12;;;;;;;3.92;3.20;;;;;;;17.60;80.31;93934.06;5003495;28;20042;-77
2022/07/09 08:41:38;;;;;;;5.60;2.83;;;;;;;17.58;78.87;93930.94;5003440;28;20045;-77
2022/07/09 08:44:04;;;;;;;4.75;3.88;;;;;;;17.62;80.17;93932.56;5003592;28;20029;-77
2022/07/09 08:46:32;;;;;;;4.28;3.10;;;;;;;17.62;78.61;93937.94;5003568;28;20025;-77
2022/07/09 08:49:00;;;;;;;3.78;2.83;;;;;;;17.65;78.49;93937.25;5003662;28;20025;-75
2022/07/09 08:51:26;;;;;;;5.10;3.05;;;;;;;17.63;79.18;93938.75;5003563;28;20034;-76
2022/07/09 08:53:54;;;;;;;5.05;3.03;;;;;;;17.68;78.04;93934.97;5003584;28;20101;-78
2022/07/09 08:56:20;;;;;;;3.70;2.70;;;;;;;17.71;77.55;93940.44;5003468;28;20014;-78
2022/07/09 08:58:45;;;;;;;3.83;2.75;;;;;;;17.70;77.71;93938.88;5003236;28;20028;-78
2022/07/09 09:01:15;;;;;;;3.88;2.90;;;;;;;17.72;78.39;93944.69;5003027;28;20419;-77
2022/07/09 09:03:42;;;;;;;4.15;3.03;;;;;;;17.75;78.18;93941.28;5003299;28;20064;-77
2022/07/09 09:06:09;;;;;;;4.25;3.40;;;;;;;17.74;78.53;93938.94;5002650;28;20026;-78
2022/07/09 09:08:43;;;;;;;4.13;3.03;;;;;;;17.72;79.13;93930.44;5003267;28;20045;-77
2022/07/09 09:11:15;;;;;;;4.22;2.95;;;;;;;17.69;79.04;93926.53;5002652;28;20323;-77
2022/07/09 09:13:45;;;;;;;5.45;3.40;;;;;;;17.74;79.63;93928.94;5002473;28;20072;-77
2022/07/09 09:16:13;;;;;;;6.07;3.65;;;;;;;17.82;80.27;93936.03;5003281;28;20036;-77
2022/07/09 09:18:43;;;;;;;5.35;3.60;;;;;;;17.85;79.65;93939.97;5003163;28;20252;-77
2022/07/09 09:21:10;;;;;;;4.53;3.60;;;;;;;17.82;78.99;93929.84;5002169;28;20026;-77
2022/07/09 09:23:52;;;;;;;4.65;3.20;;;;;;;17.89;78.68;93937.31;5001562;28;20030;-77
2022/07/09 09:26:20;;;;;;;6.47;3.33;;;;;;;17.93;78.62;93935.47;5000116;28;20022;-77
2022/07/09 09:28:55;;;;;;;4.43;3.63;;;;;;;17.88;78.62;93939.25;5001561;28;20137;-77
2022/07/09 09:31:24;;;;;;;6.93;4.30;;;;;;;17.88;80.56;93938.47;5001535;28;20029;-77
2022/07/09 09:33:55;;;;;;;4.57;3.38;;;;;;;17.57;79.75;93929.38;5001494;28;20080;-77
2022/07/09 09:36:31;;;;;;;5.57;4.15;;;;;;;17.45;81.60;93930.31;5002134;28;20025;-77
2022/07/09 09:39:18;;;;;;;7.95;4.90;;;;;;;17.34;82.63;93924.72;5002851;28;20026;-77
2022/07/09 09:42:03;;;;;;;6.85;4.47;;;;;;;17.34;82.99;93929.28;5002998;28;20065;-77
2022/07/09 09:44:40;;;;;;;9.00;4.65;;;;;;;17.22;82.88;93933.69;5003256;28;20224;-77
2022/07/09 09:47:07;;;;;;;8.85;5.32;;;;;;;17.24;83.90;93925.28;5003115;28;20034;-77
2022/07/09 09:49:34;;;;;;;7.38;5.13;;;;;;;17.17;84.12;93925.88;5003056;28;20026;-77
2022/07/09 09:52:07;;;;;;;12.50;5.10;;;;;;;17.18;84.43;93924.00;5003245;28;20026;-77
2022/07/09 09:54:33;;;;;;;7.22;5.40;;;;;;;17.18;84.50;93924.00;5003133;28;20041;-77
2022/07/09 09:57:00;;;;;;;7.38;5.25;;;;;;;17.18;85.16;93924.00;5003040;28;20032;-77
2022/07/09 09:59:25;;;;;;;7.57;4.65;;;;;;;17.23;85.17;93924.47;5002857;28;20023;-77
2022/07/09 10:01:51;;;;;;;10.90;5.25;;;;;;;17.30;85.21;93931.13;5002780;28;20023;-77
2022/07/09 10:04:18;;;;;;;9.50;5.72;;;;;;;17.29;85.48;93932.28;5002896;28;20026;-76
2022/07/09 10:06:44;;;;;;;8.15;6.40;;;;;;;17.35;86.69;93937.03;5002985;28;20022;-76
2022/07/09 10:09:12;;;;;;;8.82;7.10;;;;;;;17.46;85.88;93942.63;5002235;28;20114;-77
2022/07/09 10:11:39;;;;;;;6.72;4.65;;;;;;;17.51;82.88;93946.97;5002205;28;20037;-77
2022/07/09 10:14:05;;;;;;;5.20;3.58;;;;;;;17.49;79.06;93941.16;5001425;28;20048;-77
2022/07/09 10:16:37;;;;;;;7.38;4.55;;;;;;;17.43;79.99;93941.44;5003606;28;20319;-76
2022/07/09 10:19:03;;;;;;;5.68;4.32;;;;;;;17.41;80.84;93938.31;5006278;28;20030;-74
2022/07/09 10:21:52;;;;;;;6.78;4.20;;;;;;;17.42;81.98;93941.78;5006342;28;20085;-77
2022/07/09 10:24:27;;;;;;;8.30;4.65;;;;;;;17.45;82.46;93939.16;5005976;28;20093;-77
2022/07/09 10:27:08;;;;;;;5.68;4.07;;;;;;;17.47;82.14;93938.81;5005963;28;20030;-79
2022/07/09 10:29:36;;;;;;;9.15;5.03;;;;;;;17.48;83.06;93937.66;5006019;28;20041;-78
2022/07/09 10:32:02;;;;;;;13.27;5.25;;;;;;;17.47;83.04;93944.19;5005998;28;20056;-77
2022/07/09 10:34:52;;;;;;;9.48;4.53;;;;;;;17.41;83.07;93940.22;5005411;28;20022;-77
2022/07/09 10:37:18;;;;;;;6.90;5.05;;;;;;;17.43;83.29;93949.50;5005325;28;20332;-77
2022/07/09 10:39:54;;;;;;;8.95;5.00;;;;;;;17.45;84.16;93941.84;5005354;28;20018;-77
2022/07/09 10:42:23;;;;;;;7.88;3.85;;;;;;;17.55;82.02;93942.44;5004620;28;20041;-75
2022/07/09 10:44:49;;;;;;;7.20;4.60;;;;;;;17.60;82.02;93942.13;5005823;28;20029;-76
2022/07/09 10:47:15;;;;;;;6.85;4.30;;;;;;;17.67;81.10;93947.69;5004387;28;20201;-76
2022/07/09 10:49:41;;;;;;;13.25;3.90;;;;;;;17.69;80.24;93942.72;5005772;28;20049;-76
2022/07/09 10:52:07;;;;;;;11.73;4.35;;;;;;;17.61;81.84;93951.78;5005656;28;20029;-77
2022/07/09 10:54:34;;;;;;;6.25;4.15;;;;;;;17.37;83.12;93947.47;5005482;28;20026;-73
2022/07/09 10:56:59;;;;;;;4.90;3.35;;;;;;;17.19;82.53;93947.09;5005670;28;20092;-73
2022/07/09 10:59:25;;;;;;;3.88;2.20;;;;;;;16.85;82.80;93954.78;5005282;28;20026;-74
2022/07/09 11:01:51;;;;;;;4.80;2.63;;;;;;;16.71;82.31;93949.84;5004740;28;20057;-74
2022/07/09 11:04:24;;;;;;;2.65;1.90;;;;;;;16.50;83.95;93950.13;5005006;28;20029;-76
2022/07/09 11:06:49;;;;;;;3.15;1.92;;;;;;;16.37;83.66;93952.13;5005299;28;20097;-74
2022/07/09 11:09:15;;;;;;;2.40;1.70;;;;;;;16.01;83.33;93953.13;5003996;28;20026;-76
2022/07/09 11:11:44;;;;;;;3.67;2.35;;;;;;;16.02;83.79;93952.78;5005282;28;20053;-75
2022/07/09 11:14:10;;;;;;;4.63;1.92;;;;;;;15.73;84.36;93962.00;5005226;28;20037;-75
2022/07/09 11:16:36;;;;;;;3.38;2.05;;;;;;;15.73;85.33;93958.53;5004874;28;20046;-75
2022/07/09 11:19:22;;;;;;;5.00;2.67;;;;;;;15.82;86.75;93962.63;5005195;28;20018;-76
2022/07/09 11:21:49;;;;;;;4.05;1.80;;;;;;;15.91;85.88;93972.44;5003381;28;20041;-74
2022/07/09 11:24:19;;;;;;;3.65;2.22;;;;;;;15.96;86.61;93966.84;5004761;28;20041;-75
2022/07/09 11:26:46;;;;;;;3.20;2.13;;;;;;;15.93;86.63;93975.56;5004969;28;20315;-77
2022/07/09 11:29:12;;;;;;;3.22;2.03;;;;;;;15.80;84.50;93964.88;5004040;28;20134;-76
2022/07/09 11:31:50;;;;;;;2.63;2.00;;;;;;;15.90;86.26;93965.53;5004785;28;20021;-76